Capewater — PBPQ — position and weather

sailwx.info

Track history (hours):
 
Tides and Currents Weather Stations Pressure Air Temp Water Temp Dewpoint Dewpoint Depression Visibility Wind Speed Wind Dir Waves Ship Positions

Capewater

Last reported at 2016-Jul-01 09:33 UTC. Time now 2016-Jul-02 07:42 UTC.
Position N 58°05' E 011°49'.

Length 100 m; draft 5.5 m.

Type: Tanker. MMSI: 246346000.

Date/timePositionNaut miles runAvg speedWind from/ knotsBaromVisibWave heightAir tempDewpointWater temp
2016-Jul-01 09:33N 58°05' E 011°49'0 0.0
2016-Jul-01 08:33N 58°05' E 011°49'1 1.4
2016-Jul-01 07:34N 58°04' E 011°47'1211.5
2016-Jul-01 06:33N 57°55' E 011°35'1111.3
2016-Jul-01 05:34N 57°51' E 011°15'1111.0
2016-Jul-01 04:34N 57°50' E 010°54'1110.8
2016-Jul-01 03:34N 57°51' E 010°34'6711.1
2016-Jun-30 21:32N 57°23' E 008°40'1111.5
2016-Jun-30 20:33N 57°16' E 008°23'1212.1
2016-Jun-30 19:32N 57°10' E 008°03'1212.1
2016-Jun-30 18:33N 57°04' E 007°44'1312.4
2016-Jun-30 17:31N 56°59' E 007°23'28312.3
2016-Jun-29 18:33N 54°58' W 000°15'1413.7
2016-Jun-29 17:33N 54°52' W 000°36'1413.8
2016-Jun-29 16:33N 54°46' W 000°57'10 0.5
2016-Jun-28 19:18N 54°39' W 001°09'7 9.4
2016-Jun-28 18:34N 54°40' W 000°57'9 9.1
2016-Jun-28 17:33N 54°37' W 000°42'9 8.7
2016-Jun-28 16:34N 54°33' W 000°29'1212.0
2016-Jun-28 15:33N 54°24' W 000°16'1514.6
2016-Jun-28 14:33N 54°12' W 000°01'1414.2
2016-Jun-28 13:33N 53°60' E 000°11'1413.8
2016-Jun-28 12:33N 53°46' E 000°18'1211.8
2016-Jun-28 11:33N 53°35' E 000°18'8 7.9
2016-Jun-28 10:34N 53°34' E 000°05'1010.0
2016-Jun-28 09:34N 53°38' W 000°11'0 0.3
2016-Jun-28 08:30N 53°38' W 000°11'0 0.0
2016-Jun-28 07:33N 53°38' W 000°11'0 0.0
2016-Jun-28 06:30N 53°38' W 000°11'0 0.0
2016-Jun-28 04:33N 53°38' W 000°11'0 0.0
2016-Jun-28 03:33N 53°38' W 000°11'0 0.0
2016-Jun-28 02:33N 53°38' W 000°11'0 0.0
2016-Jun-28 01:33N 53°38' W 000°11'0 0.0
2016-Jun-28 00:33N 53°38' W 000°11'0 0.0
2016-Jun-27 23:33N 53°38' W 000°11'0 0.0
2016-Jun-27 22:33N 53°38' W 000°11'0 0.0
2016-Jun-27 21:30N 53°38' W 000°11'0 0.0
2016-Jun-27 20:33N 53°38' W 000°11'0 0.0
2016-Jun-27 19:33N 53°38' W 000°11'0 0.0
2016-Jun-27 18:33N 53°38' W 000°11'0 0.0
2016-Jun-27 17:33N 53°38' W 000°11'0 0.0
2016-Jun-27 16:33N 53°38' W 000°11'0 0.0
2016-Jun-27 15:30N 53°38' W 000°11'0 0.0
2016-Jun-27 14:33N 53°38' W 000°11'0 0.0
2016-Jun-27 13:32N 53°38' W 000°11'0 0.0
2016-Jun-27 12:29N 53°38' W 000°11'0 0.5
2016-Jun-27 11:34N 53°38' W 000°11'1111.3
2016-Jun-27 10:33N 53°34' E 000°07'1010.3
2016-Jun-27 09:33N 53°39' E 000°22'2 2.3
2016-Jun-27 08:33N 53°41' E 000°22'5 5.0
2016-Jun-27 07:33N 53°46' E 000°21'7 6.8
2016-Jun-27 06:32N 53°53' E 000°21'9 8.7
2016-Jun-27 05:34N 54°01' E 000°21'8 8.4
2016-Jun-27 04:33N 54°10' E 000°20'8 8.1
2016-Jun-27 03:33N 54°18' E 000°19'8 8.0
2016-Jun-27 02:33N 54°24' E 000°10'8 7.7
2016-Jun-27 01:33N 54°29' E 000°00'8 7.9
2016-Jun-27 00:33N 54°35' W 000°10'8 8.2
2016-Jun-26 23:33N 54°40' W 000°20'9 8.7
2016-Jun-26 22:33N 54°45' W 000°33'9 8.7
2016-Jun-26 21:34N 54°46' W 000°48'1312.6
2016-Jun-26 20:33N 54°40' W 001°07'0 0.0
2016-Jun-25 17:16N 54°40' W 001°06'811.5
2016-Jun-25 16:34N 54°39' W 000°52'1313.2
2016-Jun-25 15:32N 54°34' W 000°31'1313.0
2016-Jun-25 14:33N 54°25' W 000°15'1413.8
2016-Jun-25 13:33N 54°16' E 000°02'1414.0
2016-Jun-25 12:33N 54°05' E 000°17'1413.5
2016-Jun-25 11:33N 53°55' E 000°32'1312.7
2016-Jun-25 10:33N 53°45' E 000°45'1212.0
2016-Jun-25 09:33N 53°34' E 000°56'1110.9
2016-Jun-25 08:33N 53°25' E 001°06'1211.2
2016-Jun-25 07:29N 53°15' E 001°17'1212.3
2016-Jun-25 06:33N 53°07' E 001°30'1413.8
2016-Jun-25 05:33N 52°58' E 001°48'1413.5
2016-Jun-25 04:33N 52°52' E 002°07'5412.6
2016-Jun-25 00:14N 51°59' E 002°28'811.3
2016-Jun-24 23:30N 51°51' E 002°34'1211.4
2016-Jun-24 22:28N 51°45' E 002°50'1212.2
2016-Jun-24 21:29N 51°45' E 003°09'1010.1
2016-Jun-24 20:32N 51°38' E 003°21'1313.1
2016-Jun-24 19:34N 51°27' E 003°31'1111.1
2016-Jun-24 18:34N 51°22' E 003°46'1010.2
2016-Jun-24 17:33N 51°25' E 004°02'9 8.5
2016-Jun-24 16:33N 51°21' E 004°15'6 5.8
2016-Jun-24 15:33N 51°17' E 004°20'0 0.4
2016-Jun-24 14:33N 51°16' E 004°20'1 0.7
2016-Jun-24 13:31N 51°16' E 004°20'0 0.0
2016-Jun-24 12:28N 51°16' E 004°20'0 0.0
2016-Jun-24 11:28N 51°16' E 004°20'0 0.0
2016-Jun-24 10:31N 51°16' E 004°20'0 0.0
2016-Jun-24 09:31N 51°16' E 004°20'0 0.0
2016-Jun-24 08:31N 51°16' E 004°20'0 0.0
2016-Jun-24 07:31N 51°16' E 004°20'0 0.0
2016-Jun-24 04:31N 51°16' E 004°20'0 0.0
2016-Jun-24 03:31N 51°16' E 004°20'0 0.0
2016-Jun-24 02:31N 51°16' E 004°20'0 0.0
2016-Jun-24 01:31N 51°16' E 004°20'0 0.0
2016-Jun-24 00:31N 51°16' E 004°20'0 0.0
2016-Jun-23 23:31N 51°16' E 004°20'0 0.0
2016-Jun-23 22:31N 51°16' E 004°20'0 0.0
2016-Jun-23 21:31N 51°16' E 004°20'0 0.0
2016-Jun-23 20:25N 51°16' E 004°20'0 0.0
2016-Jun-23 19:28N 51°16' E 004°20'0 0.0
2016-Jun-23 18:31N 51°16' E 004°20'0 0.0
2016-Jun-23 17:31N 51°16' E 004°20'0 0.0
2016-Jun-23 16:31N 51°16' E 004°20'0 0.0
2016-Jun-23 15:28N 51°16' E 004°20'0 0.0
2016-Jun-23 14:31N 51°16' E 004°20'0 0.0
2016-Jun-23 13:31N 51°16' E 004°20'0 0.0
2016-Jun-23 12:31N 51°16' E 004°20'0 0.0
2016-Jun-23 11:31N 51°16' E 004°20'0 0.0
2016-Jun-23 10:31N 51°16' E 004°20'0 0.0
2016-Jun-23 09:31N 51°16' E 004°20'0 0.0
2016-Jun-23 08:31N 51°16' E 004°20'0 0.0
2016-Jun-23 07:31N 51°16' E 004°20'0 0.0
2016-Jun-23 05:31N 51°16' E 004°20'0 0.0
2016-Jun-23 04:34N 51°16' E 004°20'0 0.0
2016-Jun-23 03:25N 51°16' E 004°20'0 0.0
2016-Jun-23 02:31N 51°16' E 004°20'0 0.0
2016-Jun-23 01:31N 51°16' E 004°20'3 3.4
2016-Jun-23 00:33N 51°19' E 004°19'2 2.1
2016-Jun-22 23:33N 51°21' E 004°17'3 3.3
2016-Jun-22 22:33N 51°23' E 004°13'7 6.8
2016-Jun-22 21:33N 51°23' E 004°02'4 4.5
2016-Jun-22 20:33N 51°22' E 003°55'8 8.0
2016-Jun-22 19:33N 51°23' E 003°43'8 8.4
2016-Jun-22 18:33N 51°28' E 003°31'1211.7
2016-Jun-22 17:32N 51°38' E 003°21'1110.8
2016-Jun-22 16:33N 51°48' E 003°15'6 0.6
2016-Jun-22 06:32N 51°42' E 003°16'1414.8
2016-Jun-22 05:33N 51°30' E 003°28'1212.0
2016-Jun-22 04:33N 51°23' E 003°44'1111.4
2016-Jun-22 03:33N 51°26' E 004°01'9 8.7
2016-Jun-22 02:33N 51°22' E 004°14'2 2.4
2016-Jun-22 01:34N 51°21' E 004°17'1 0.7
2016-Jun-22 00:19N 51°22' E 004°17'0 0.0
2016-Jun-21 22:25N 51°22' E 004°17'0 0.0
2016-Jun-21 21:28N 51°22' E 004°17'0 0.0
2016-Jun-21 20:31N 51°22' E 004°17'0 0.0
2016-Jun-21 18:28N 51°22' E 004°17'0 0.0
2016-Jun-21 17:22N 51°22' E 004°17'0 0.0
2016-Jun-21 15:07N 51°22' E 004°17'0 0.0
2016-Jun-21 13:31N 51°22' E 004°17'0 0.0
2016-Jun-21 10:07N 51°22' E 004°17'  
Track history (hours):
 
Tides and Currents Weather Stations Pressure Air Temp Water Temp Dewpoint Dewpoint Depression Visibility Wind Speed Wind Dir Waves Ship Positions

Capewater

Last reported at 2016-Jul-01 09:33 UTC. Time now 2016-Jul-02 07:42 UTC.
Position N 58°05' E 011°49'.

Length 100 m; draft 5.5 m.

Type: Tanker. MMSI: 246346000.

Date/timePositionNaut miles runAvg speedWind from/ knotsBaromVisibWave heightAir tempDewpointWater temp
2016-Jul-01 09:33N 58°05' E 011°49'0 0.0
2016-Jul-01 08:33N 58°05' E 011°49'1 1.4
2016-Jul-01 07:34N 58°04' E 011°47'1211.5
2016-Jul-01 06:33N 57°55' E 011°35'1111.3
2016-Jul-01 05:34N 57°51' E 011°15'1111.0
2016-Jul-01 04:34N 57°50' E 010°54'1110.8
2016-Jul-01 03:34N 57°51' E 010°34'6711.1
2016-Jun-30 21:32N 57°23' E 008°40'1111.5
2016-Jun-30 20:33N 57°16' E 008°23'1212.1
2016-Jun-30 19:32N 57°10' E 008°03'1212.1
2016-Jun-30 18:33N 57°04' E 007°44'1312.4
2016-Jun-30 17:31N 56°59' E 007°23'28312.3
2016-Jun-29 18:33N 54°58' W 000°15'1413.7
2016-Jun-29 17:33N 54°52' W 000°36'1413.8
2016-Jun-29 16:33N 54°46' W 000°57'10 0.5
2016-Jun-28 19:18N 54°39' W 001°09'7 9.4
2016-Jun-28 18:34N 54°40' W 000°57'9 9.1
2016-Jun-28 17:33N 54°37' W 000°42'9 8.7
2016-Jun-28 16:34N 54°33' W 000°29'1212.0
2016-Jun-28 15:33N 54°24' W 000°16'1514.6
2016-Jun-28 14:33N 54°12' W 000°01'1414.2
2016-Jun-28 13:33N 53°60' E 000°11'1413.8
2016-Jun-28 12:33N 53°46' E 000°18'1211.8
2016-Jun-28 11:33N 53°35' E 000°18'8 7.9
2016-Jun-28 10:34N 53°34' E 000°05'1010.0
2016-Jun-28 09:34N 53°38' W 000°11'0 0.3
2016-Jun-28 08:30N 53°38' W 000°11'0 0.0
2016-Jun-28 07:33N 53°38' W 000°11'0 0.0
2016-Jun-28 06:30N 53°38' W 000°11'0 0.0
2016-Jun-28 04:33N 53°38' W 000°11'0 0.0
2016-Jun-28 03:33N 53°38' W 000°11'0 0.0
2016-Jun-28 02:33N 53°38' W 000°11'0 0.0
2016-Jun-28 01:33N 53°38' W 000°11'0 0.0
2016-Jun-28 00:33N 53°38' W 000°11'0 0.0
2016-Jun-27 23:33N 53°38' W 000°11'0 0.0
2016-Jun-27 22:33N 53°38' W 000°11'0 0.0
2016-Jun-27 21:30N 53°38' W 000°11'0 0.0
2016-Jun-27 20:33N 53°38' W 000°11'0 0.0
2016-Jun-27 19:33N 53°38' W 000°11'0 0.0
2016-Jun-27 18:33N 53°38' W 000°11'0 0.0
2016-Jun-27 17:33N 53°38' W 000°11'0 0.0
2016-Jun-27 16:33N 53°38' W 000°11'0 0.0
2016-Jun-27 15:30N 53°38' W 000°11'0 0.0
2016-Jun-27 14:33N 53°38' W 000°11'0 0.0
2016-Jun-27 13:32N 53°38' W 000°11'0 0.0
2016-Jun-27 12:29N 53°38' W 000°11'0 0.5
2016-Jun-27 11:34N 53°38' W 000°11'1111.3
2016-Jun-27 10:33N 53°34' E 000°07'1010.3
2016-Jun-27 09:33N 53°39' E 000°22'2 2.3
2016-Jun-27 08:33N 53°41' E 000°22'5 5.0
2016-Jun-27 07:33N 53°46' E 000°21'7 6.8
2016-Jun-27 06:32N 53°53' E 000°21'9 8.7
2016-Jun-27 05:34N 54°01' E 000°21'8 8.4
2016-Jun-27 04:33N 54°10' E 000°20'8 8.1
2016-Jun-27 03:33N 54°18' E 000°19'8 8.0
2016-Jun-27 02:33N 54°24' E 000°10'8 7.7
2016-Jun-27 01:33N 54°29' E 000°00'8 7.9
2016-Jun-27 00:33N 54°35' W 000°10'8 8.2
2016-Jun-26 23:33N 54°40' W 000°20'9 8.7
2016-Jun-26 22:33N 54°45' W 000°33'9 8.7
2016-Jun-26 21:34N 54°46' W 000°48'1312.6
2016-Jun-26 20:33N 54°40' W 001°07'0 0.0
2016-Jun-25 17:16N 54°40' W 001°06'811.5
2016-Jun-25 16:34N 54°39' W 000°52'1313.2
2016-Jun-25 15:32N 54°34' W 000°31'1313.0
2016-Jun-25 14:33N 54°25' W 000°15'1413.8
2016-Jun-25 13:33N 54°16' E 000°02'1414.0
2016-Jun-25 12:33N 54°05' E 000°17'1413.5
2016-Jun-25 11:33N 53°55' E 000°32'1312.7
2016-Jun-25 10:33N 53°45' E 000°45'1212.0
2016-Jun-25 09:33N 53°34' E 000°56'1110.9
2016-Jun-25 08:33N 53°25' E 001°06'1211.2
2016-Jun-25 07:29N 53°15' E 001°17'1212.3
2016-Jun-25 06:33N 53°07' E 001°30'1413.8
2016-Jun-25 05:33N 52°58' E 001°48'1413.5
2016-Jun-25 04:33N 52°52' E 002°07'5412.6
2016-Jun-25 00:14N 51°59' E 002°28'811.3
2016-Jun-24 23:30N 51°51' E 002°34'1211.4
2016-Jun-24 22:28N 51°45' E 002°50'1212.2
2016-Jun-24 21:29N 51°45' E 003°09'1010.1
2016-Jun-24 20:32N 51°38' E 003°21'1313.1
2016-Jun-24 19:34N 51°27' E 003°31'1111.1
2016-Jun-24 18:34N 51°22' E 003°46'1010.2
2016-Jun-24 17:33N 51°25' E 004°02'9 8.5
2016-Jun-24 16:33N 51°21' E 004°15'6 5.8
2016-Jun-24 15:33N 51°17' E 004°20'0 0.4
2016-Jun-24 14:33N 51°16' E 004°20'1 0.7
2016-Jun-24 13:31N 51°16' E 004°20'0 0.0
2016-Jun-24 12:28N 51°16' E 004°20'0 0.0
2016-Jun-24 11:28N 51°16' E 004°20'0 0.0
2016-Jun-24 10:31N 51°16' E 004°20'0 0.0
2016-Jun-24 09:31N 51°16' E 004°20'0 0.0
2016-Jun-24 08:31N 51°16' E 004°20'0 0.0
2016-Jun-24 07:31N 51°16' E 004°20'0 0.0
2016-Jun-24 04:31N 51°16' E 004°20'0 0.0
2016-Jun-24 03:31N 51°16' E 004°20'0 0.0
2016-Jun-24 02:31N 51°16' E 004°20'0 0.0
2016-Jun-24 01:31N 51°16' E 004°20'0 0.0
2016-Jun-24 00:31N 51°16' E 004°20'0 0.0
2016-Jun-23 23:31N 51°16' E 004°20'0 0.0
2016-Jun-23 22:31N 51°16' E 004°20'0 0.0
2016-Jun-23 21:31N 51°16' E 004°20'0 0.0
2016-Jun-23 20:25N 51°16' E 004°20'0 0.0
2016-Jun-23 19:28N 51°16' E 004°20'0 0.0
2016-Jun-23 18:31N 51°16' E 004°20'0 0.0
2016-Jun-23 17:31N 51°16' E 004°20'0 0.0
2016-Jun-23 16:31N 51°16' E 004°20'0 0.0
2016-Jun-23 15:28N 51°16' E 004°20'0 0.0
2016-Jun-23 14:31N 51°16' E 004°20'0 0.0
2016-Jun-23 13:31N 51°16' E 004°20'0 0.0
2016-Jun-23 12:31N 51°16' E 004°20'0 0.0
2016-Jun-23 11:31N 51°16' E 004°20'0 0.0
2016-Jun-23 10:31N 51°16' E 004°20'0 0.0
2016-Jun-23 09:31N 51°16' E 004°20'0 0.0
2016-Jun-23 08:31N 51°16' E 004°20'0 0.0
2016-Jun-23 07:31N 51°16' E 004°20'0 0.0
2016-Jun-23 05:31N 51°16' E 004°20'0 0.0
2016-Jun-23 04:34N 51°16' E 004°20'0 0.0
2016-Jun-23 03:25N 51°16' E 004°20'0 0.0
2016-Jun-23 02:31N 51°16' E 004°20'0 0.0
2016-Jun-23 01:31N 51°16' E 004°20'3 3.4
2016-Jun-23 00:33N 51°19' E 004°19'2 2.1
2016-Jun-22 23:33N 51°21' E 004°17'3 3.3
2016-Jun-22 22:33N 51°23' E 004°13'7 6.8
2016-Jun-22 21:33N 51°23' E 004°02'4 4.5
2016-Jun-22 20:33N 51°22' E 003°55'8 8.0
2016-Jun-22 19:33N 51°23' E 003°43'8 8.4
2016-Jun-22 18:33N 51°28' E 003°31'1211.7
2016-Jun-22 17:32N 51°38' E 003°21'1110.8
2016-Jun-22 16:33N 51°48' E 003°15'6 0.6
2016-Jun-22 06:32N 51°42' E 003°16'1414.8
2016-Jun-22 05:33N 51°30' E 003°28'1212.0
2016-Jun-22 04:33N 51°23' E 003°44'1111.4
2016-Jun-22 03:33N 51°26' E 004°01'9 8.7
2016-Jun-22 02:33N 51°22' E 004°14'2 2.4
2016-Jun-22 01:34N 51°21' E 004°17'1 0.7
2016-Jun-22 00:19N 51°22' E 004°17'0 0.0
2016-Jun-21 22:25N 51°22' E 004°17'0 0.0
2016-Jun-21 21:28N 51°22' E 004°17'0 0.0
2016-Jun-21 20:31N 51°22' E 004°17'0 0.0
2016-Jun-21 18:28N 51°22' E 004°17'0 0.0
2016-Jun-21 17:22N 51°22' E 004°17'0 0.0
2016-Jun-21 15:07N 51°22' E 004°17'0 0.0
2016-Jun-21 13:31N 51°22' E 004°17'0 0.0
2016-Jun-21 10:07N 51°22' E 004°17'  

Dump ship's entire track history